Time;durP1;ratioP1;P1;durP2;ratioP2;P2;SDS_P1;SDS_P2;PMS_P1;PMS_P2;Temp;Humidity;BMP_temperature;BMP_pressure;BME280_temperature;BME280_humidity;BME280_pressure;Samples;Min_cycle;Max_cycle;Signal;HPM_P1;HPM_P2
2021/11/15 00:00:11;;;;;;;104.55;95.38;;;;;;;5.57;85.56;102355.84;1700205;83;20892;-78
2021/11/15 00:02:39;;;;;;;98.22;90.03;;;;;;;5.55;85.55;102361.34;1699200;83;20931;-78
2021/11/15 00:05:07;;;;;;;80.87;73.42;;;;;;;5.54;85.56;102362.16;1685209;83;20888;-78
2021/11/15 00:07:33;;;;;;;91.55;74.15;;;;;;;5.53;85.58;102357.85;1698254;84;20875;-78
2021/11/15 00:09:59;;;;;;;65.30;58.98;;;;;;;5.52;85.58;102356.98;1706537;84;20879;-78
2021/11/15 00:12:25;;;;;;;130.07;119.50;;;;;;;5.50;85.54;102366.73;1675643;83;20957;-78
2021/11/15 00:14:51;;;;;;;101.38;93.00;;;;;;;5.49;85.56;102368.84;1653241;86;20976;-78
2021/11/15 00:17:19;;;;;;;87.20;79.92;;;;;;;5.49;85.58;102362.42;1699197;84;21057;-78
2021/11/15 00:19:45;;;;;;;155.93;144.13;;;;;;;5.43;85.24;102364.78;1669352;83;21064;-78
2021/11/15 00:22:12;;;;;;;143.17;132.15;;;;;;;5.43;85.24;102364.78;1699695;83;21396;-78
2021/11/15 00:24:38;;;;;;;125.92;116.28;;;;;;;5.43;85.56;102376.33;1700432;83;21097;-78
2021/11/15 00:27:05;;;;;;;114.93;105.37;;;;;;;5.40;85.54;102371.97;1705779;83;20894;-78
2021/11/15 00:29:30;;;;;;;94.60;86.28;;;;;;;5.40;85.60;102377.09;1708365;83;21033;-78
2021/11/15 00:31:57;;;;;;;163.53;137.77;;;;;;;5.39;85.59;102377.05;1693936;83;21069;-78
2021/11/15 00:34:23;;;;;;;87.95;80.32;;;;;;;5.38;85.60;102376.17;1700442;83;21086;-78
2021/11/15 00:36:49;;;;;;;92.72;84.85;;;;;;;5.39;85.62;102377.05;1699350;84;21085;-78
2021/11/15 00:39:16;;;;;;;102.25;93.42;;;;;;;5.38;85.63;102383.00;1690319;84;21082;-78
2021/11/15 00:41:44;;;;;;;81.82;74.25;;;;;;;5.37;85.63;102373.56;1644410;86;20907;-78
2021/11/15 00:44:11;;;;;;;79.45;72.22;;;;;;;5.37;85.60;102383.81;1688837;83;20918;-78
2021/11/15 00:46:37;;;;;;;70.45;63.15;;;;;;;5.36;85.64;102384.23;1662777;84;21457;-78
2021/11/15 00:49:03;;;;;;;68.60;61.60;;;;;;;5.35;85.62;102388.90;1683052;84;20943;-78
2021/11/15 00:51:30;;;;;;;68.87;62.13;;;;;;;5.33;85.60;102376.43;1701331;83;20958;-78
2021/11/15 00:53:58;;;;;;;68.17;61.95;;;;;;;5.26;85.63;102365.09;1685404;82;20892;-78
2021/11/15 00:56:25;;;;;;;60.28;54.27;;;;;;;5.33;85.62;102368.73;1702288;83;20886;-78
2021/11/15 00:58:52;;;;;;;61.35;55.40;;;;;;;5.31;85.61;102363.96;1691207;83;20942;-78
2021/11/15 01:01:19;;;;;;;57.90;52.58;;;;;;;5.30;85.61;102364.38;1706327;83;20942;-78
2021/11/15 01:03:45;;;;;;;56.55;50.52;;;;;;;5.32;85.63;102356.32;1689179;83;20883;-78
2021/11/15 01:06:11;;;;;;;581.25;323.70;;;;;;;5.30;85.59;102363.09;1702686;83;20947;-78
2021/11/15 01:08:43;;;;;;;103.65;95.20;;;;;;;5.30;85.61;102356.68;1697628;82;21438;-78
2021/11/15 01:11:09;;;;;;;77.42;70.40;;;;;;;5.30;85.60;102356.68;1686526;84;20941;-78
2021/11/15 01:13:36;;;;;;;132.25;122.47;;;;;;;5.29;85.57;102353.66;1690203;83;20918;-78
2021/11/15 01:16:03;;;;;;;112.62;103.62;;;;;;;5.28;85.59;102349.34;1696619;83;20899;-78
2021/11/15 01:18:29;;;;;;;71.87;65.32;;;;;;;5.27;85.57;102355.30;1699556;83;20949;-78
2021/11/15 01:20:55;;;;;;;72.65;66.42;;;;;;;5.27;85.57;102349.30;1693047;82;20951;-78
2021/11/15 01:23:21;;;;;;;76.40;69.80;;;;;;;5.26;85.57;102356.11;1687480;83;20887;-78
2021/11/15 01:25:47;;;;;;;86.55;79.27;;;;;;;5.24;85.55;102356.88;1692246;83;20935;-78
2021/11/15 01:28:13;;;;;;;86.03;78.73;;;;;;;5.24;85.57;102362.89;1670962;83;22042;-78
2021/11/15 01:30:41;;;;;;;88.95;81.47;;;;;;;5.23;85.54;102361.55;1658057;86;20983;-78
2021/11/15 01:33:07;;;;;;;104.70;96.37;;;;;;;5.23;85.58;102364.12;1641592;86;20916;-78
2021/11/15 01:35:34;;;;;;;91.40;83.95;;;;;;;5.23;85.58;102362.83;1654549;86;21070;-78
2021/11/15 01:38:01;;;;;;;95.55;87.62;;;;;;;5.22;85.58;102366.22;1666659;85;21034;-78
2021/11/15 01:40:30;;;;;;;104.75;96.32;;;;;;;5.20;85.59;102359.75;1646994;86;21178;-78
2021/11/15 01:42:58;;;;;;;106.65;98.25;;;;;;;5.20;85.59;102367.45;1644500;86;20964;-78
2021/11/15 01:45:27;;;;;;;116.45;107.45;;;;;;;5.19;85.55;102364.45;1689037;83;20947;-78
2021/11/15 01:47:59;;;;;;;1999.90;999.90;;;;;;;5.18;85.57;102364.41;1668216;83;20950;-78
2021/11/15 01:50:27;;;;;;;126.60;117.00;;;;;;;5.18;85.57;102370.41;1669975;84;20955;-78
2021/11/15 01:52:54;;;;;;;128.93;119.17;;;;;;;5.16;85.57;102365.63;1652897;86;20958;-78
2021/11/15 01:55:22;;;;;;;121.70;112.10;;;;;;;5.16;85.58;102367.33;1642758;86;20964;-78
2021/11/15 01:57:50;;;;;;;124.27;114.72;;;;;;;5.15;85.59;102368.14;1645265;86;21450;-78
2021/11/15 02:00:33;;;;;;;121.25;111.88;;;;;;;5.15;85.60;102369.02;1646440;86;21111;-78
2021/11/15 02:03:01;;;;;;;118.82;109.78;;;;;;;5.15;85.61;102370.30;1649405;86;21541;-78
2021/11/15 02:05:27;;;;;;;124.00;114.52;;;;;;;5.16;85.65;102368.20;1694734;83;21054;-78
2021/11/15 02:07:53;;;;;;;126.33;116.77;;;;;;;5.16;85.65;102369.48;1686016;83;21086;-78
2021/11/15 02:10:20;;;;;;;125.58;115.80;;;;;;;5.16;85.64;102364.35;1690999;83;21501;-78
2021/11/15 02:12:46;;;;;;;1999.90;999.90;;;;;;;5.17;85.64;102374.20;1700477;82;21065;-78
2021/11/15 02:15:14;;;;;;;1999.90;999.90;;;;;;;5.18;85.76;102378.09;1682666;83;21066;-78
2021/11/15 02:17:45;;;;;;;1999.90;999.90;;;;;;;5.17;85.61;102374.20;1690624;83;20911;-78
2021/11/15 02:20:19;;;;;;;1999.90;999.90;;;;;;;5.15;85.61;102377.12;1681578;82;20943;-78
2021/11/15 02:22:46;;;;;;;1999.90;999.90;;;;;;;5.14;85.63;102382.66;1696852;83;20931;-78
2021/11/15 02:25:17;;;;;;;;;;;;;;;5.15;85.63;102384.81;1704936;83;20915;-78
2021/11/15 02:27:46;;;;;;;118.35;108.70;;;;;;;5.12;85.63;102389.42;1702823;82;20153;-78
2021/11/15 02:30:20;;;;;;;1057.53;552.67;;;;;;;5.11;85.66;102379.98;1665724;84;20950;-78
2021/11/15 02:32:47;;;;;;;95.47;86.42;;;;;;;5.13;85.68;102378.76;1692778;84;20892;-78
2021/11/15 02:35:16;;;;;;;98.78;89.65;;;;;;;5.10;85.66;102379.52;1688254;83;20969;-78
2021/11/15 02:37:44;;;;;;;109.37;99.55;;;;;;;5.10;85.67;102383.38;1684344;83;25429;-78
2021/11/15 02:40:18;;;;;;;100.97;91.90;;;;;;;5.09;85.66;102379.06;1698905;83;20903;-78
2021/11/15 02:42:46;;;;;;;101.45;92.60;;;;;;;5.07;85.68;102384.55;1671026;84;20908;-78
2021/11/15 02:45:16;;;;;;;108.03;98.25;;;;;;;5.07;85.68;102385.83;1664466;86;20946;-78
2021/11/15 02:47:43;;;;;;;1999.90;999.90;;;;;;;5.07;85.69;102385.83;1665273;86;20963;-78
2021/11/15 02:50:15;;;;;;;126.30;115.92;;;;;;;5.07;85.69;102384.95;1643024;86;21463;-78
2021/11/15 02:52:48;;;;;;;129.23;117.85;;;;;;;5.06;85.72;102387.05;1638090;87;20964;-78
2021/11/15 02:55:22;;;;;;;120.97;110.80;;;;;;;5.05;85.69;102386.59;1686070;83;21395;-78
2021/11/15 02:57:48;;;;;;;127.55;117.10;;;;;;;5.03;85.67;102381.41;1660732;84;21529;-78
2021/11/15 03:00:28;;;;;;;123.82;112.97;;;;;;;5.04;85.67;102393.82;1618069;86;20923;-78
2021/11/15 03:02:57;;;;;;;122.65;112.03;;;;;;;5.01;85.71;102388.17;1690591;84;20966;-78
2021/11/15 03:05:32;;;;;;;96.92;87.72;;;;;;;4.99;85.69;102389.81;1687902;83;20954;-78
2021/11/15 03:07:59;;;;;;;95.62;87.12;;;;;;;4.99;85.73;102388.53;1704282;82;20923;-78
2021/11/15 03:10:25;;;;;;;;;;;;;;;5.01;85.76;102382.17;1697668;83;20943;-78
2021/11/15 03:12:54;;;;;;;97.70;88.65;;;;;;;5.00;85.75;102390.27;1699374;83;20196;-78
2021/11/15 03:15:36;;;;;;;108.83;99.03;;;;;;;5.00;85.67;102390.27;1703700;83;21121;-78
2021/11/15 03:18:10;;;;;;;108.07;98.25;;;;;;;4.98;85.70;102385.50;1697312;83;21093;-78
2021/11/15 03:20:42;;;;;;;108.25;98.12;;;;;;;4.96;85.69;102383.30;1680963;83;21430;-78
2021/11/15 03:23:19;;;;;;;112.55;102.15;;;;;;;4.94;85.71;102383.23;1672822;83;20972;-78
2021/11/15 03:25:46;;;;;;;109.55;98.97;;;;;;;4.93;85.75;102380.22;1691787;83;21128;-78
2021/11/15 03:28:16;;;;;;;588.83;330.02;;;;;;;4.93;85.79;102380.22;1668223;84;21122;-78
2021/11/15 03:30:44;;;;;;;106.47;95.65;;;;;;;4.94;85.79;102387.50;1696472;84;21101;-78
2021/11/15 03:33:12;;;;;;;103.65;93.50;;;;;;;4.94;85.79;102388.78;1689943;83;21432;-78
2021/11/15 03:35:39;;;;;;;104.47;94.05;;;;;;;4.94;85.80;102386.21;1661746;84;21480;-78
2021/11/15 03:38:07;;;;;;;111.80;101.05;;;;;;;4.93;85.81;102387.91;1672948;83;21066;-78
2021/11/15 03:40:34;;;;;;;111.72;100.82;;;;;;;4.94;85.82;102384.52;1686330;83;20982;-78
2021/11/15 03:43:05;;;;;;;116.57;105.67;;;;;;;4.94;85.84;102388.37;1680033;84;21095;-78
2021/11/15 03:45:34;;;;;;;116.88;106.00;;;;;;;4.95;85.85;102386.67;1676815;82;21002;-78
2021/11/15 03:48:01;;;;;;;106.30;95.97;;;;;;;4.98;85.83;102389.34;1683796;84;21502;-78
2021/11/15 03:50:28;;;;;;;119.57;108.85;;;;;;;4.98;85.80;102388.94;1700416;83;21122;-78
2021/11/15 03:52:56;;;;;;;63.85;43.00;;;;;;;4.97;85.79;102391.45;1690303;83;21106;-78
2021/11/15 03:55:23;;;;;;;74.07;50.67;;;;;;;4.95;85.77;102392.67;1686376;83;20907;-78
2021/11/15 03:57:50;;;;;;;71.72;49.85;;;;;;;4.98;85.83;102395.75;1676198;84;20928;-78
2021/11/15 04:00:25;;;;;;;76.47;52.67;;;;;;;4.98;85.80;102388.06;1665214;84;20892;-78
2021/11/15 04:02:56;;;;;;;80.22;55.00;;;;;;;4.97;85.77;102385.04;1634763;85;21009;-78
2021/11/15 04:05:30;;;;;;;85.57;58.52;;;;;;;4.98;85.84;102390.22;1671019;84;20958;-78
2021/11/15 04:08:05;;;;;;;79.25;55.33;;;;;;;4.98;85.79;102390.22;1664593;84;20923;-78
2021/11/15 04:10:39;;;;;;;74.90;55.50;;;;;;;4.99;85.75;102393.66;1630827;86;20947;-78
2021/11/15 04:13:17;;;;;;;80.07;56.58;;;;;;;4.97;85.76;102385.04;1660653;85;20955;-78
2021/11/15 04:15:45;;;;;;;83.85;58.65;;;;;;;4.97;85.72;102388.47;1659327;86;20889;-78
2021/11/15 04:18:15;;;;;;;83.10;59.00;;;;;;;4.96;85.73;102390.98;1643896;86;21004;-78
2021/11/15 04:20:41;;;;;;;85.80;62.53;;;;;;;4.94;85.74;102388.78;1654471;86;20927;-78
2021/11/15 04:23:08;;;;;;;83.78;58.92;;;;;;;4.95;85.76;102396.52;1657834;86;20982;-78
2021/11/15 04:25:35;;;;;;;82.72;62.48;;;;;;;4.93;85.81;102384.06;1641229;86;20927;-78
2021/11/15 04:28:01;;;;;;;86.97;62.03;;;;;;;4.94;85.77;102391.34;1657889;86;20930;-78
2021/11/15 04:30:31;;;;;;;83.17;58.13;;;;;;;4.94;85.82;102387.50;1647630;85;20982;-78
2021/11/15 04:32:56;;;;;;;85.53;59.93;;;;;;;4.95;85.84;102389.23;1656065;85;20963;-78
2021/11/15 04:35:21;;;;;;;75.47;55.47;;;;;;;4.95;85.85;102385.39;1640429;86;20967;-78
2021/11/15 04:37:48;;;;;;;81.97;58.63;;;;;;;4.95;85.83;102385.39;1640297;86;21349;-78
2021/11/15 04:40:14;;;;;;;86.57;64.10;;;;;;;4.97;85.88;102386.32;1659580;86;20961;-78
2021/11/15 04:42:43;;;;;;;85.67;60.50;;;;;;;4.96;85.85;102384.58;1644671;85;20938;-78
2021/11/15 04:45:10;;;;;;;;;;;;;;;4.97;85.88;102387.19;1657837;86;20939;-78
2021/11/15 04:47:37;;;;;;;84.00;54.63;;;;;;;4.97;85.89;102385.04;1656211;86;20221;-78
2021/11/15 04:50:06;;;;;;;87.05;58.95;;;;;;;4.97;85.88;102383.76;1649639;85;21071;-78
2021/11/15 04:52:32;;;;;;;87.45;61.40;;;;;;;4.96;85.89;102380.73;1645694;86;21095;-78
2021/11/15 04:54:58;;;;;;;87.62;58.98;;;;;;;4.96;85.92;102380.73;1654767;86;21336;-78
2021/11/15 04:57:25;;;;;;;86.17;60.05;;;;;;;4.96;85.86;102375.60;1653658;86;21063;-78
2021/11/15 04:59:53;;;;;;;86.55;59.70;;;;;;;4.95;85.89;102376.02;1640651;86;21127;-78
2021/11/15 05:02:20;;;;;;;88.15;60.05;;;;;;;4.95;85.89;102375.14;1646758;86;22227;-78
2021/11/15 05:04:46;;;;;;;86.08;58.60;;;;;;;4.93;85.87;102374.22;1642784;86;21110;-78
2021/11/15 05:07:12;;;;;;;79.97;58.17;;;;;;;4.93;85.93;102371.23;1649802;85;21042;-78
2021/11/15 05:09:38;;;;;;;88.97;60.03;;;;;;;4.93;85.96;102369.09;1652096;85;21058;-78
2021/11/15 05:12:06;;;;;;;86.97;58.10;;;;;;;4.93;85.92;102369.09;1653675;86;21300;-78
2021/11/15 05:14:32;;;;;;;83.58;57.95;;;;;;;4.93;85.93;102366.52;1654805;85;21050;-78
2021/11/15 05:16:58;;;;;;;84.35;49.25;;;;;;;4.92;85.96;102368.22;1641511;86;21099;-77
2021/11/15 05:19:24;;;;;;;83.30;53.45;;;;;;;4.91;85.95;102362.63;1646231;86;21114;-77
2021/11/15 05:21:51;;;;;;;83.33;54.27;;;;;;;4.90;85.99;102367.29;1705642;83;20906;-77
2021/11/15 05:24:17;;;;;;;78.67;52.62;;;;;;;4.91;85.97;102369.44;1698197;83;21037;-77
2021/11/15 05:26:43;;;;;;;83.37;55.13;;;;;;;4.90;86.00;102367.29;1690216;82;20923;-77
2021/11/15 05:29:09;;;;;;;80.57;53.83;;;;;;;4.92;86.04;102367.34;1697042;83;20914;-77
2021/11/15 05:31:35;;;;;;;85.77;54.87;;;;;;;4.91;86.04;102369.44;1700660;83;21682;-77
2021/11/15 05:34:04;;;;;;;76.28;50.50;;;;;;;4.91;86.04;102374.57;1674952;84;21076;-77
2021/11/15 05:36:31;;;;;;;77.78;49.05;;;;;;;4.90;86.07;102376.26;1670744;83;21125;-77
2021/11/15 05:38:59;;;;;;;78.75;46.58;;;;;;;4.92;86.12;102373.75;1660508;85;21081;-77
2021/11/15 05:41:25;;;;;;;80.75;47.58;;;;;;;4.92;86.12;102377.59;1636711;86;21166;-77
2021/11/15 05:43:51;;;;;;;81.10;48.13;;;;;;;4.91;86.04;102378.41;1641963;86;26592;-77
2021/11/15 05:46:18;;;;;;;74.65;45.60;;;;;;;4.91;86.10;102380.98;1646953;85;21538;-75
2021/11/15 05:48:45;;;;;;;75.50;45.70;;;;;;;4.89;86.06;102380.92;1642035;86;21131;-75
2021/11/15 05:51:11;;;;;;;81.85;58.90;;;;;;;4.89;86.14;102382.61;1634360;85;24549;-75
2021/11/15 05:53:36;;;;;;;70.77;37.47;;;;;;;4.88;86.10;102383.02;1692442;82;20920;-75
2021/11/15 05:56:07;;;;;;;69.75;36.20;;;;;;;4.89;86.15;102386.45;1704479;82;21631;-75
2021/11/15 05:58:34;;;;;;;71.28;37.98;;;;;;;4.89;86.19;102384.77;1698056;84;20887;-75
2021/11/15 06:01:02;;;;;;;77.32;38.25;;;;;;;4.90;86.17;102383.08;1707074;83;20914;-75
2021/11/15 06:03:29;;;;;;;69.75;37.88;;;;;;;4.90;86.16;102383.08;1695891;82;20914;-75
2021/11/15 06:05:55;;;;;;;72.92;37.75;;;;;;;4.91;86.20;102386.97;1700296;82;20903;-75
2021/11/15 06:08:21;;;;;;;70.37;37.43;;;;;;;4.92;86.18;102382.72;1692642;83;20981;-75
2021/11/15 06:10:48;;;;;;;68.85;36.95;;;;;;;4.92;86.19;102381.44;1698856;82;20946;-75
2021/11/15 06:13:15;;;;;;;75.10;39.15;;;;;;;4.94;86.20;102386.21;1689204;83;20871;-75
2021/11/15 06:15:42;;;;;;;74.82;38.15;;;;;;;4.93;86.18;102389.19;1661728;84;20875;-75
2021/11/15 06:18:08;;;;;;;80.05;41.08;;;;;;;4.92;86.18;102389.13;1671152;85;20967;-75
2021/11/15 06:20:34;;;;;;;79.42;41.60;;;;;;;4.89;86.19;102378.77;1644099;86;21030;-75
2021/11/15 06:23:01;;;;;;;84.45;43.33;;;;;;;4.90;86.21;102385.23;1631884;86;21065;-75
2021/11/15 06:25:27;;;;;;;76.28;39.73;;;;;;;4.90;86.20;102392.92;1680194;84;21054;-75
2021/11/15 06:27:53;;;;;;;82.57;40.00;;;;;;;4.90;86.23;102393.33;1691799;84;21015;-75
2021/11/15 06:30:20;;;;;;;76.60;41.53;;;;;;;4.90;86.25;102388.20;1677297;84;21084;-75
2021/11/15 06:32:47;;;;;;;80.10;40.30;;;;;;;4.91;86.27;102393.80;1675874;84;21084;-75
2021/11/15 06:35:13;;;;;;;82.82;38.23;;;;;;;4.93;86.29;102394.31;1647089;86;21500;-75
2021/11/15 06:37:40;;;;;;;76.82;39.20;;;;;;;4.93;86.27;102394.31;1648721;86;21102;-75
2021/11/15 06:40:09;;;;;;;;;;;;;;;4.94;86.25;102388.78;1606759;87;21120;-75
2021/11/15 06:42:37;;;;;;;65.78;35.68;;;;;;;4.93;86.28;102390.88;1636440;86;20163;-75
2021/11/15 06:45:06;;;;;;;73.37;37.63;;;;;;;4.93;86.28;102393.03;1669470;84;20985;-75
2021/11/15 06:47:33;;;;;;;74.62;37.90;;;;;;;4.95;86.31;102398.21;1654185;84;21811;-75
2021/11/15 06:50:01;;;;;;;74.80;38.20;;;;;;;4.95;86.29;102396.93;1645925;84;21112;-75
2021/11/15 06:52:28;;;;;;;79.75;39.10;;;;;;;4.95;86.28;102400.36;1642692;86;22041;-75
2021/11/15 06:54:56;;;;;;;84.85;47.03;;;;;;;4.96;86.30;102400.83;1653544;86;21014;-75
2021/11/15 06:57:26;;;;;;;85.42;41.35;;;;;;;4.95;86.28;102394.36;1631397;86;21004;-75
2021/11/15 06:59:51;;;;;;;75.75;39.15;;;;;;;4.95;86.24;102402.05;1645799;86;21570;-75
2021/11/15 07:02:17;;;;;;;71.92;38.70;;;;;;;4.94;86.30;102399.03;1638202;85;21016;-75
2021/11/15 07:04:43;;;;;;;71.47;38.00;;;;;;;4.95;86.33;102400.36;1667979;84;20968;-75
2021/11/15 07:07:10;;;;;;;69.85;36.75;;;;;;;4.97;86.33;102406.42;1678959;84;20942;-75
2021/11/15 07:09:36;;;;;;;76.30;38.33;;;;;;;4.99;86.34;102409.04;1688132;83;20930;-75
2021/11/15 07:12:03;;;;;;;69.25;37.83;;;;;;;4.99;86.36;102411.19;1676024;84;20941;-75
2021/11/15 07:14:29;;;;;;;74.25;36.63;;;;;;;5.02;86.37;102406.58;1672600;84;20939;-75
2021/11/15 07:16:56;;;;;;;72.47;36.98;;;;;;;5.03;86.39;102408.73;1684672;84;20899;-75
2021/11/15 07:19:23;;;;;;;68.90;36.73;;;;;;;5.04;86.35;102411.77;1667720;84;20928;-76
2021/11/15 07:21:49;;;;;;;73.95;37.90;;;;;;;5.04;86.32;102422.02;1660376;85;21435;-76
2021/11/15 07:24:15;;;;;;;67.62;34.63;;;;;;;5.04;86.35;102417.77;1659322;84;21200;-75
2021/11/15 07:26:42;;;;;;;59.67;33.78;;;;;;;5.04;86.36;102415.61;1655093;84;21432;-75
2021/11/15 07:29:08;;;;;;;67.00;34.93;;;;;;;5.05;86.38;102418.64;1670365;84;20922;-75
2021/11/15 07:31:34;;;;;;;66.00;34.38;;;;;;;5.05;86.42;102422.08;1660667;85;21671;-75
2021/11/15 07:34:02;;;;;;;66.00;34.55;;;;;;;5.06;86.44;102426.38;1653113;84;20937;-75
2021/11/15 07:36:28;;;;;;;58.70;33.42;;;;;;;5.06;86.44;102421.26;1653877;84;20899;-75
2021/11/15 07:38:54;;;;;;;61.10;35.68;;;;;;;5.07;86.45;102425.56;1647703;85;21452;-75
2021/11/15 07:41:20;;;;;;;65.10;35.92;;;;;;;5.07;86.45;102424.28;1646648;85;20970;-75
2021/11/15 07:43:46;;;;;;;56.92;32.90;;;;;;;5.08;86.48;102427.72;1656552;86;20957;-76
2021/11/15 07:46:12;;;;;;;69.23;44.07;;;;;;;5.09;86.51;102417.93;1656912;84;21442;-75
2021/11/15 07:48:38;;;;;;;147.75;40.92;;;;;;;5.09;86.47;102420.49;1622521;86;21411;-75
2021/11/15 07:51:04;;;;;;;101.57;53.57;;;;;;;5.09;86.50;102429.06;1635707;86;20878;-75
2021/11/15 07:53:35;;;;;;;79.15;56.95;;;;;;;5.10;86.52;102422.23;1645020;86;20962;-75
2021/11/15 07:55:58;;;;;;;59.63;32.78;;;;;;;5.12;86.55;102418.91;1643625;85;21442;-75
2021/11/15 07:58:24;;;;;;;60.60;31.23;;;;;;;5.13;86.53;102417.22;1653297;84;20915;-75
2021/11/15 08:00:52;;;;;;;58.70;31.37;;;;;;;5.12;86.54;102421.88;1628387;86;21598;-75
2021/11/15 08:03:18;;;;;;;56.55;34.63;;;;;;;5.13;86.55;102419.38;1647811;85;21407;-75
2021/11/15 08:05:44;;;;;;;55.48;32.35;;;;;;;5.13;86.55;102419.38;1651648;85;20894;-76
2021/11/15 08:08:10;;;;;;;61.10;31.55;;;;;;;5.15;86.59;102421.99;1627592;85;20969;-76
2021/11/15 08:10:36;;;;;;;61.02;33.18;;;;;;;5.15;86.55;102421.58;1634091;84;20953;-76
2021/11/15 08:13:03;;;;;;;57.38;32.35;;;;;;;5.16;86.60;102421.17;1649319;86;21403;-76
2021/11/15 08:15:29;;;;;;;58.35;33.25;;;;;;;5.16;86.56;102424.61;1624591;86;21410;-76
2021/11/15 08:17:59;;;;;;;61.05;33.80;;;;;;;5.16;86.55;102419.89;1656727;86;20903;-76
2021/11/15 08:20:29;;;;;;;60.52;32.48;;;;;;;5.18;86.60;102419.53;1681014;83;20947;-76
2021/11/15 08:23:01;;;;;;;60.38;33.33;;;;;;;5.18;86.59;102416.56;1680755;83;21388;-76
2021/11/15 08:25:51;;;;;;;59.30;32.58;;;;;;;5.21;86.64;102428.17;1658829;84;21420;-76
2021/11/15 08:28:18;;;;;;;62.48;34.40;;;;;;;5.22;86.63;102415.81;1688777;83;20954;-76
2021/11/15 08:30:46;;;;;;;60.52;32.73;;;;;;;5.22;86.60;102415.81;1694305;82;20962;-76
2021/11/15 08:33:14;;;;;;;65.43;35.60;;;;;;;5.23;86.57;102421.82;1630851;84;20898;-76
2021/11/15 08:35:40;;;;;;;63.70;34.67;;;;;;;5.21;86.60;102412.79;1694914;83;20949;-75
2021/11/15 08:38:43;;;;;;;64.72;33.98;;;;;;;5.21;86.61;102414.07;1697110;83;20927;-75
2021/11/15 08:41:12;;;;;;;58.08;32.25;;;;;;;5.21;86.56;102412.79;1690573;82;21018;-75
2021/11/15 08:43:38;;;;;;;63.30;33.25;;;;;;;5.21;86.58;102415.77;1693145;83;21367;-75
2021/11/15 08:46:07;;;;;;;56.28;30.12;;;;;;;5.21;86.62;102419.61;1687354;82;20951;-75
2021/11/15 08:48:34;;;;;;;58.83;33.48;;;;;;;5.21;86.64;102417.92;1701065;82;21491;-75
2021/11/15 08:51:04;;;;;;;49.85;29.95;;;;;;;5.24;86.70;102412.02;1701867;82;20929;-75
2021/11/15 08:53:28;;;;;;;46.63;28.50;;;;;;;5.25;86.59;102412.48;1679224;83;21368;-75
2021/11/15 08:55:54;;;;;;;55.90;30.77;;;;;;;5.26;86.62;102409.09;1695876;83;21340;-75
2021/11/15 08:58:21;;;;;;;47.77;28.87;;;;;;;5.26;86.67;102411.26;1692084;83;20922;-75
2021/11/15 09:00:48;;;;;;;50.38;28.05;;;;;;;5.29;86.69;102408.80;1694059;82;22117;-75
2021/11/15 09:03:16;;;;;;;46.98;27.58;;;;;;;5.32;86.69;102415.31;1666183;84;21396;-75
2021/11/15 09:05:44;;;;;;;51.53;29.70;;;;;;;5.34;86.69;102420.50;1697263;83;20946;-76
2021/11/15 09:08:11;;;;;;;53.80;32.53;;;;;;;5.36;86.67;102419.27;1648870;84;20936;-75
2021/11/15 09:10:37;;;;;;;52.03;33.58;;;;;;;5.38;86.69;102422.34;1669503;83;21585;-76
2021/11/15 09:13:03;;;;;;;62.15;35.63;;;;;;;5.40;86.70;102419.84;1700914;82;21423;-75
2021/11/15 09:15:30;;;;;;;56.75;34.10;;;;;;;5.41;86.70;102417.33;1701337;83;20921;-75
2021/11/15 09:17:56;;;;;;;56.50;30.20;;;;;;;5.44;86.72;102416.55;1696753;83;21396;-76
2021/11/15 09:20:22;;;;;;;43.53;27.70;;;;;;;5.46;86.72;102421.33;1715726;83;20892;-75
2021/11/15 09:22:48;;;;;;;48.92;28.23;;;;;;;5.47;86.72;102419.22;1717210;83;21434;-75
2021/11/15 09:25:14;;;;;;;46.37;28.32;;;;;;;5.47;86.65;102417.53;1718627;83;20910;-75
2021/11/15 09:27:41;;;;;;;42.93;26.43;;;;;;;5.47;86.68;102417.94;1683955;83;21651;-75
2021/11/15 09:30:10;;;;;;;44.77;27.87;;;;;;;5.47;86.65;102414.97;1718601;82;20946;-75
2021/11/15 09:32:37;;;;;;;46.37;28.35;;;;;;;5.48;86.70;102413.27;1719933;82;20942;-75
2021/11/15 09:35:06;;;;;;;50.03;28.65;;;;;;;5.49;86.71;102408.19;1713533;82;21402;-75
2021/11/15 09:37:33;;;;;;;46.18;28.92;;;;;;;5.51;86.71;102408.25;1673009;83;21416;-75
2021/11/15 09:40:00;;;;;;;49.20;28.07;;;;;;;5.51;86.68;102408.25;1721004;83;20933;-75
2021/11/15 09:42:26;;;;;;;;;;;;;;;5.51;86.72;102404.39;1714269;82;21406;-75
2021/11/15 09:44:53;;;;;;;47.05;27.02;;;;;;;5.52;86.71;102409.58;1707529;82;20190;-75
2021/11/15 09:47:20;;;;;;;52.23;28.45;;;;;;;5.51;86.72;102403.98;1717205;82;20961;-75
2021/11/15 09:49:46;;;;;;;;;;;;;;;5.50;86.71;102399.67;1720505;83;20957;-75
2021/11/15 09:52:14;;;;;;;48.33;28.20;;;;;;;5.51;86.74;102397.98;1716926;81;20445;-75
2021/11/15 09:54:40;;;;;;;44.75;27.22;;;;;;;5.51;86.71;102397.98;1718002;83;21426;-75
2021/11/15 09:57:08;;;;;;;47.90;27.77;;;;;;;5.51;86.74;102400.14;1718493;81;20978;-75
2021/11/15 09:59:40;;;;;;;45.88;27.02;;;;;;;5.52;86.78;102395.87;1711733;82;21450;-75
2021/11/15 10:02:06;;;;;;;51.13;28.97;;;;;;;5.53;86.79;102392.08;1718591;82;20965;-75
2021/11/15 10:04:32;;;;;;;51.42;28.95;;;;;;;5.54;86.78;102401.52;1717370;82;20926;-75
2021/11/15 10:06:59;;;;;;;50.03;33.90;;;;;;;5.52;86.68;102396.75;1710872;82;21383;-75
2021/11/15 10:09:29;;;;;;;45.80;27.95;;;;;;;5.51;86.72;102396.29;1717700;82;21011;-75
2021/11/15 10:11:58;;;;;;;43.30;26.60;;;;;;;5.51;86.73;102393.72;1716050;81;21382;-75
2021/11/15 10:14:25;;;;;;;51.15;28.55;;;;;;;5.51;86.74;102387.72;1706566;82;20890;-75
2021/11/15 10:16:58;;;;;;;51.50;29.75;;;;;;;5.50;86.75;102379.15;1705093;82;20902;-75
2021/11/15 10:19:24;;;;;;;44.18;26.05;;;;;;;5.52;86.81;102385.62;1714156;82;20911;-75
2021/11/15 10:21:54;;;;;;;42.17;26.02;;;;;;;5.51;86.77;102380.02;1687058;83;22092;-75
2021/11/15 10:24:32;;;;;;;45.45;28.70;;;;;;;5.51;86.76;102381.30;1688935;83;20944;-75
2021/11/15 10:27:04;;;;;;;47.27;29.15;;;;;;;5.50;86.73;102382.13;1700756;83;20957;-75
2021/11/15 10:29:42;;;;;;;44.70;27.45;;;;;;;5.49;86.75;102388.08;1685696;83;20903;-75
2021/11/15 10:32:16;;;;;;;47.95;27.70;;;;;;;5.46;86.72;102390.55;1697529;83;20946;-75
2021/11/15 10:34:53;;;;;;;45.50;28.62;;;;;;;5.45;86.75;102383.66;1700141;83;20923;-75
2021/11/15 10:37:23;;;;;;;45.05;27.22;;;;;;;5.43;86.78;102382.33;1641244;86;20951;-75
2021/11/15 10:40:06;;;;;;;39.30;25.30;;;;;;;5.41;86.75;102377.56;1682336;83;20958;-75
2021/11/15 10:42:46;;;;;;;38.85;23.95;;;;;;;5.39;86.72;102379.61;1695387;82;20931;-76
2021/11/15 10:45:28;;;;;;;39.90;24.30;;;;;;;5.32;86.63;102376.84;1688365;82;20871;-75
2021/11/15 10:48:08;;;;;;;36.05;23.07;;;;;;;5.29;86.67;102377.14;1700101;83;21428;-75
2021/11/15 10:50:45;;;;;;;41.58;24.35;;;;;;;5.25;86.69;102377.45;1695936;83;20935;-75
2021/11/15 10:53:24;;;;;;;37.03;22.40;;;;;;;5.22;86.66;102385.05;1677171;84;20937;-75
2021/11/15 10:56:18;;;;;;;41.15;24.27;;;;;;;5.19;86.68;102382.81;1681298;83;20955;-75
2021/11/15 10:58:47;;;;;;;35.40;24.12;;;;;;;5.17;86.64;102382.77;1694685;83;20973;-76
2021/11/15 11:01:16;;;;;;;39.00;24.32;;;;;;;5.14;86.68;102380.50;1680779;84;20905;-76
2021/11/15 11:03:43;;;;;;;37.50;26.15;;;;;;;5.14;86.66;102377.94;1694138;83;20922;-75
2021/11/15 11:06:18;;;;;;;50.03;27.05;;;;;;;5.11;86.68;102373.58;1668413;84;20963;-75
2021/11/15 11:08:47;;;;;;;40.45;23.55;;;;;;;5.11;86.71;102373.98;1660925;85;21498;-75
2021/11/15 11:11:30;;;;;;;43.13;23.70;;;;;;;5.11;86.72;102376.14;1696933;83;20915;-75
2021/11/15 11:14:02;;;;;;;41.95;24.32;;;;;;;5.11;86.73;102381.27;1699226;83;20895;-75
2021/11/15 11:16:48;;;;;;;47.58;26.27;;;;;;;5.11;86.73;102390.23;1665386;84;20894;-75
2021/11/15 11:19:21;;;;;;;41.18;25.80;;;;;;;5.11;86.69;102397.06;1661523;85;20950;-75
2021/11/15 11:22:11;;;;;;;45.50;26.90;;;;;;;5.12;86.74;102398.39;1659581;86;20971;-75